Terminal Aerodrome Forecast
Issued by NWS

Home | Current Version | Previous Version | Text Only | Print | Product List | Glossary On
Versions: 1 2 3 4 5 6 7 8 9 10 11 12 13 14 15 16 17 18
000
FTUS44 KOUN 270302 AAB
TAFCSM
TAF AMD
KCSM 270302Z 2703/2724 16020G30KT P6SM FEW023 BKN150
     FM270700 16015G22KT P6SM BKN018
     FM271600 18015G22KT P6SM SCT025=

USA.gov is the U.S. government's official web portal to all federal, state and local government web resources and services.